Relevés horaires Semmerzake (Belgique)


Relevés horaires à Semmerzake - Lundi 08 Avr. 2024
Heure UTC1 Température [°C] Vent [km/h] Hum. [%] Pres.4 [hPa] Visi. [Km] Nébu. [octa] Préc.5 [mm] Cond.
2m. Res. Ros. Dir.2 Vit. Moy. Raf.3
23:00 13.1 13.1 12.1 S 3.7 -- 9.3 94 1003.3(1.3/3h) >70 -- -- --
22:00 13.3 13.3 11.8 SSE 5.6 -- 9.3 91 1003.1(0.6/3h) >70 -- -- NA
21:00 13.5 13.5 11.9 O 5.6 -- 38.9 90 1003(0.1/3h) >70 -- -- Il y a de la pluie faible et continue à la station au moment de l'observation
20:00 16.1 16.1 12.6 ESE 3.7 -- 5.6 80 1001.8(-1.2/3h) 16 -- -- --
19:00 17.8 17.8 12.4 SSE 3.7 -- 7.4 71 1002.3(-1.4/3h) 16 -- -- --
18:00 19.1 19.1 12.8 S 5.6 -- 13.0 67 1002.7(-1.4/3h) 17 -- -- NA
17:00 19.7 19.7 12.2 S 5.6 -- 11.1 62 1003.1(-2.2/3h) >70 -- -- --
16:00 19.7 19.7 12.2 SSE 7.4 -- 13.0 62 1003.7(-2.5/3h) >70 -- -- --
15:00 19.6 19.6 12.0 SSE 5.6 -- 11.1 61 1004.2(-2.9/3h) >70 -- -- NA
14:00 19.0 19.0 12.8 SE 3.7 -- 11.1 67 1005.3(-2.4/3h) >70 -- -- NA
13:00 17.2 17.2 12.1 SSE 5.6 -- 11.1 72 1006.5(-2.4/3h) >70 -- -- --
12:00 16.4 16.4 12.2 SE 5.6 -- 9.3 76 1007.2(-1.9/3h) >70 -- -- --
11:00 15.1 15.1 11.3 ESE 3.7 -- 7.4 78 1007.7(-1.3/3h) >70 -- -- --
10:00 14.7 14.7 11.1 S 3.7 -- 7.4 79 1008.8(-0.5/3h) >70 -- -- --
09:00 13.4 13.4 10.7 S 5.6 -- 7.4 84 1009.2(-1.0/3h) >70 -- -- --
08:00 12.3 12.3 10.5 NNO 1.9 -- 3.7 89 1009.2(-0.5/3h) >70 -- -- --
07:00 11.5 11.5 10.1 NNO 1.9 -- 5.6 91 1009.6(-0.5/3h) >70 -- -- --
06:00 10.1 10.1 9.3 SSO 3.7 -- 9.3 95 1010.3(0.3/3h) >70 -- 0.4/12h
NA
05:00 10.1 10.1 9.2 S 3.7 -- 7.4 94 1009.8(-1.0/3h) 15 -- -- --
04:00 10.5 10.5 9.7 S 3.7 -- 9.3 95 1010.2(-0.8/3h) 14 -- -- --
03:00 11.3 11.3 10.3 SE 3.7 -- 7.4 94 1010(-1.3/3h) >70 -- -- NA
02:00 11.0 11.0 9.5 S 3.7 -- 5.6 90 1011(-0.4/3h) >70 -- -- NA
01:00 12.2 12.2 9.9 S 3.7 -- 7.4 86 1011(-0.8/3h) >70 -- -- NA
00:00 12.6 12.6 10.2 SSO 3.7 -- 24.1 85 1011.3(-0.7/3h) >70 -- 0.4/6h
NA

1 Coordinated Universal Time. Actuellement il est 03:00 locale et 01:00 UTC.

2 Le vent souffle depuis la direction indiquée vers la direction oposée.

3 Les rafales max. sont disponible 40 min après l'heure du relevé.

4 Pour les stations d'altitude (plus de 600m) le géopotentiel du niveau le plus proche de la pression obligatoire est indiqué.

5 Les stations disposant d'un diffuseur peuvent indiquer "trace". Cela signifie que des précipitations ont touchés le sol mais que la quantité est inférieure à 0.1 mm.

Récapitulatif de la journée
Température [°C] Vent [km/h] Ensoleillement4 [h] Precipitations totale5 [mm] Pression [Hpa]
Min1 Max.2 Moy.3 Max. Min Max.
9.5 20.3 0 38.9 0 h 0 min 0 1001.8 1011.3

1 Température minimale relevée entre 18:00 UTC la veille et 18:00 UTC le jour donné.

2 Température maximale relevée entre 06:00 UTC le jour donné et 06:00 UTC le lendemain.

3 Vent moyen de la journée basé sur les relevés horaires.

4 Ensoleillement en heures relevé entre 06:00 UTC la veille et 06:00 UTC le jour donné.

5 Précipitations totales tombées entre 06:00 UTC la jour donné et 06:00 UTC le lendemain.

Graphiques horaires